Time;durP1;ratioP1;P1;durP2;ratioP2;P2;SDS_P1;SDS_P2;PMS_P1;PMS_P2;Temp;Humidity;BMP_temperature;BMP_pressure;BME280_temperature;BME280_humidity;BME280_pressure;Samples;Min_cycle;Max_cycle;Signal;HPM_P1;HPM_P2
2024/04/12 00:01:11;;;;;;;30.93;21.40;;;13.30;99.90;;;;;;5446101;26;20317;-55
2024/04/12 00:03:37;;;;;;;32.10;20.93;;;13.30;99.90;;;;;;5439421;26;20232;-57
2024/04/12 00:06:14;;;;;;;29.60;20.00;;;13.30;99.90;;;;;;5440899;26;21021;-56
2024/04/12 00:08:42;;;;;;;31.43;20.80;;;13.30;99.90;;;;;;5417673;26;20247;-55
2024/04/12 00:11:13;;;;;;;29.77;21.03;;;13.30;99.90;;;;;;5467505;26;20231;-58
2024/04/12 00:13:40;;;;;;;33.67;20.83;;;13.20;99.90;;;;;;5451344;26;20277;-56
2024/04/12 00:16:09;;;;;;;34.47;21.80;;;13.30;99.90;;;;;;5447615;26;20578;-57
2024/04/12 00:18:36;;;;;;;32.83;20.97;;;13.30;99.90;;;;;;5438223;26;20926;-57
2024/04/12 00:21:05;;;;;;;32.77;20.07;;;13.30;99.90;;;;;;5453821;26;21109;-49
2024/04/12 00:23:32;;;;;;;26.23;19.40;;;13.30;99.90;;;;;;5421294;26;20246;-51
2024/04/12 00:26:02;;;;;;;31.23;21.20;;;13.30;99.90;;;;;;5451768;26;20266;-49
2024/04/12 00:28:32;;;;;;;29.50;19.30;;;13.20;99.90;;;;;;5460823;26;20238;-55
2024/04/12 00:31:02;;;;;;;29.77;19.53;;;13.30;99.90;;;;;;5435964;26;21014;-53
2024/04/12 00:33:31;;;;;;;29.53;20.73;;;13.20;99.90;;;;;;5450145;26;20631;-56
2024/04/12 00:36:07;;;;;;;30.33;20.60;;;13.20;99.90;;;;;;5452790;26;20255;-53
2024/04/12 00:38:35;;;;;;;27.93;19.23;;;13.20;99.90;;;;;;5410201;26;20304;-55
2024/04/12 00:41:11;;;;;;;29.23;18.37;;;13.20;99.90;;;;;;5447167;26;20309;-51
2024/04/12 00:43:45;;;;;;;26.20;18.73;;;13.20;99.90;;;;;;5454492;26;20272;-56
2024/04/12 00:46:18;;;;;;;28.07;19.60;;;13.20;99.90;;;;;;5429243;26;20330;-54
2024/04/12 00:48:45;;;;;;;27.00;18.57;;;13.20;99.90;;;;;;5446621;26;20300;-55
2024/04/12 00:51:17;;;;;;;26.77;17.77;;;13.20;99.90;;;;;;5457279;26;20746;-54
2024/04/12 00:53:46;;;;;;;26.20;18.37;;;13.20;99.90;;;;;;5406739;26;20791;-57
2024/04/12 00:56:16;;;;;;;27.70;18.37;;;13.20;99.90;;;;;;5453770;26;20239;-52
2024/04/12 00:58:47;;;;;;;25.93;18.27;;;13.20;99.90;;;;;;5453870;26;20278;-57
2024/04/12 01:01:22;;;;;;;27.30;18.53;;;13.20;99.90;;;;;;5433945;26;20246;-53
2024/04/12 01:03:49;;;;;;;25.93;18.73;;;13.20;99.90;;;;;;5465982;26;20230;-56
2024/04/12 01:06:24;;;;;;;27.20;16.53;;;13.20;99.90;;;;;;5455420;26;20260;-54
2024/04/12 01:08:51;;;;;;;27.47;17.83;;;13.20;99.90;;;;;;5401821;26;20624;-56
2024/04/12 01:11:22;;;;;;;22.33;17.07;;;13.20;99.90;;;;;;5458845;26;20236;-54
2024/04/12 01:13:52;;;;;;;27.37;16.80;;;13.20;99.90;;;;;;5449874;26;20824;-57
2024/04/12 01:16:21;;;;;;;24.33;17.10;;;13.20;99.90;;;;;;5453755;26;20274;-53
2024/04/12 01:18:48;;;;;;;25.27;17.00;;;13.20;99.90;;;;;;5433995;26;20273;-58
2024/04/12 01:21:16;;;;;;;23.23;16.53;;;13.20;99.90;;;;;;5459520;26;20281;-55
2024/04/12 01:23:43;;;;;;;23.53;16.37;;;13.20;99.90;;;;;;5428342;26;20269;-55
2024/04/12 01:26:17;;;;;;;20.93;15.23;;;13.20;99.90;;;;;;5438990;26;20231;-50
2024/04/12 01:28:44;;;;;;;23.50;15.97;;;13.20;99.90;;;;;;5449592;26;20374;-57
2024/04/12 01:31:15;;;;;;;23.67;15.60;;;13.20;99.90;;;;;;5456794;26;20231;-48
2024/04/12 01:33:42;;;;;;;25.37;15.83;;;13.20;99.90;;;;;;5446736;26;20273;-56
2024/04/12 01:36:12;;;;;;;22.07;15.03;;;13.10;99.90;;;;;;5459310;26;20310;-55
2024/04/12 01:38:39;;;;;;;22.87;14.90;;;13.10;99.90;;;;;;5437161;26;20227;-57
2024/04/12 01:41:08;;;;;;;18.10;13.90;;;13.10;99.90;;;;;;5425752;26;20373;-54
2024/04/12 01:43:38;;;;;;;22.63;14.17;;;13.10;99.90;;;;;;5450460;26;20231;-54
2024/04/12 01:46:07;;;;;;;17.87;13.93;;;13.10;99.90;;;;;;5459472;26;20322;-52
2024/04/12 01:48:34;;;;;;;18.60;12.70;;;13.10;99.90;;;;;;5443280;26;20336;-55
2024/04/12 01:51:12;;;;;;;21.00;12.93;;;13.10;99.90;;;;;;5460666;26;20263;-54
2024/04/12 01:53:40;;;;;;;20.00;12.87;;;13.10;99.90;;;;;;5441576;26;20326;-56
2024/04/12 01:56:09;;;;;;;21.20;13.43;;;13.10;99.90;;;;;;5404646;26;20235;-54
2024/04/12 01:58:40;;;;;;;19.10;13.60;;;13.10;99.90;;;;;;5461242;26;20299;-55
2024/04/12 02:01:11;;;;;;;19.53;12.87;;;13.10;99.90;;;;;;5460536;26;20235;-50
2024/04/12 02:03:37;;;;;;;25.93;14.07;;;13.10;99.90;;;;;;5452379;26;20242;-57
2024/04/12 02:06:06;;;;;;;20.67;14.03;;;13.10;99.90;;;;;;5445440;26;20281;-53
2024/04/12 02:08:32;;;;;;;21.37;14.17;;;13.10;99.90;;;;;;5457177;26;20223;-52
2024/04/12 02:11:05;;;;;;;24.47;14.37;;;13.10;99.90;;;;;;5397653;26;20258;-51
2024/04/12 02:13:36;;;;;;;20.27;14.40;;;13.00;99.90;;;;;;5465324;26;20281;-52
2024/04/12 02:16:10;;;;;;;24.70;15.00;;;13.00;99.90;;;;;;5459496;26;20231;-52
2024/04/12 02:18:38;;;;;;;21.10;13.93;;;13.00;99.90;;;;;;5448517;26;20234;-54
2024/04/12 02:21:10;;;;;;;22.03;14.67;;;13.00;99.90;;;;;;5437290;26;20269;-52
2024/04/12 02:23:37;;;;;;;25.93;14.77;;;13.00;99.90;;;;;;5440147;26;20347;-57
2024/04/12 02:26:08;;;;;;;26.80;15.90;;;13.00;99.90;;;;;;5452444;26;21146;-49
2024/04/12 02:28:36;;;;;;;21.70;14.43;;;13.00;99.90;;;;;;5412724;26;20671;-56
2024/04/12 02:31:10;;;;;;;24.77;15.27;;;13.00;99.90;;;;;;5453278;26;20857;-52
2024/04/12 02:33:37;;;;;;;27.03;15.07;;;13.00;99.90;;;;;;5458266;26;20273;-56
2024/04/12 02:36:11;;;;;;;23.97;15.00;;;13.00;99.90;;;;;;5441340;26;20313;-52
2024/04/12 02:38:38;;;;;;;28.60;16.13;;;13.00;99.90;;;;;;5440173;26;20235;-57
2024/04/12 02:41:07;;;;;;;25.63;15.73;;;13.00;99.90;;;;;;5460103;26;20227;-53
2024/04/12 02:43:35;;;;;;;27.60;16.93;;;13.00;99.90;;;;;;5411850;26;20246;-53
2024/04/12 02:46:10;;;;;;;25.07;15.77;;;13.00;99.90;;;;;;5459625;26;20232;-50
2024/04/12 02:48:40;;;;;;;26.07;16.50;;;13.00;99.90;;;;;;5462411;26;20282;-58
2024/04/12 02:51:12;;;;;;;32.03;18.10;;;13.00;99.90;;;;;;5429826;26;20338;-53
2024/04/12 02:53:38;;;;;;;28.40;17.63;;;13.00;99.90;;;;;;5452733;26;20231;-57
2024/04/12 02:56:11;;;;;;;28.00;17.83;;;13.00;99.90;;;;;;5450891;26;20227;-52
2024/04/12 02:58:39;;;;;;;30.03;19.20;;;13.00;99.90;;;;;;5404867;26;20242;-57
2024/04/12 03:01:11;;;;;;;29.73;18.23;;;13.00;99.90;;;;;;5457841;26;20992;-54
2024/04/12 03:03:41;;;;;;;32.60;19.60;;;13.00;99.90;;;;;;5445569;26;20386;-58
2024/04/12 03:06:11;;;;;;;31.43;19.50;;;13.00;99.90;;;;;;5422360;26;20240;-54
2024/04/12 03:08:39;;;;;;;28.73;19.20;;;13.00;99.90;;;;;;5467171;26;20277;-57
2024/04/12 03:11:25;;;;;;;31.30;18.53;;;13.00;99.90;;;;;;5453023;26;20332;-53
2024/04/12 03:13:51;;;;;;;33.70;19.50;;;13.00;99.90;;;;;;5394139;26;20236;-57
2024/04/12 03:16:24;;;;;;;33.23;19.37;;;13.00;99.90;;;;;;5454313;26;20613;-54
2024/04/12 03:18:51;;;;;;;30.03;19.17;;;13.00;99.90;;;;;;5432589;26;20278;-57
2024/04/12 03:21:24;;;;;;;30.47;19.00;;;13.00;99.90;;;;;;5454365;26;20255;-52
2024/04/12 03:23:50;;;;;;;28.87;18.93;;;13.00;99.90;;;;;;5434176;26;20232;-56
2024/04/12 03:26:21;;;;;;;32.20;19.27;;;13.00;99.90;;;;;;5461117;26;20274;-53
2024/04/12 03:28:49;;;;;;;30.70;19.13;;;13.00;99.90;;;;;;5418376;26;20316;-56
2024/04/12 03:31:18;;;;;;;30.27;20.00;;;13.00;99.90;;;;;;5456131;26;20399;-52
2024/04/12 03:33:46;;;;;;;28.93;19.50;;;13.00;99.90;;;;;;5449736;26;21142;-57
2024/04/12 03:36:53;;;;;;;29.50;19.10;;;13.00;99.90;;;;;;5460833;26;20242;-53
2024/04/12 03:39:34;;;;;;;29.27;18.60;;;13.00;99.90;;;;;;5458456;26;20838;-54
2024/04/12 03:42:08;;;;;;;30.13;18.50;;;13.00;99.90;;;;;;5451510;26;20235;-53
2024/04/12 03:44:35;;;;;;;29.40;19.10;;;13.00;99.90;;;;;;5414333;26;20692;-55
2024/04/12 03:47:07;;;;;;;28.83;19.40;;;13.00;99.90;;;;;;5420054;26;20239;-56
2024/04/12 03:49:39;;;;;;;30.50;19.27;;;13.00;99.90;;;;;;5442469;26;20239;-55
2024/04/12 03:52:11;;;;;;;29.10;18.00;;;13.00;99.90;;;;;;5432048;26;20248;-51
2024/04/12 03:54:38;;;;;;;23.23;16.80;;;13.00;99.90;;;;;;5452533;26;20227;-56
2024/04/12 03:57:09;;;;;;;28.17;18.67;;;13.00;99.90;;;;;;5451297;26;20302;-52
2024/04/12 03:59:35;;;;;;;28.27;17.00;;;13.00;99.90;;;;;;5432789;26;20230;-57
2024/04/12 04:02:07;;;;;;;25.60;16.40;;;13.00;99.90;;;;;;5407902;26;20242;-49
2024/04/12 04:04:44;;;;;;;31.33;18.20;;;13.00;99.90;;;;;;5453667;26;20231;-55
2024/04/12 04:07:14;;;;;;;27.70;16.53;;;13.00;99.90;;;;;;5428783;26;20231;-58
2024/04/12 04:09:43;;;;;;;30.67;18.90;;;13.00;99.90;;;;;;5453464;26;20234;-50
2024/04/12 04:12:12;;;;;;;28.53;17.03;;;13.00;99.90;;;;;;5454004;26;20274;-56
2024/04/12 04:14:47;;;;;;;27.30;17.07;;;13.00;99.90;;;;;;5412538;26;20284;-55
2024/04/12 04:17:14;;;;;;;24.67;16.23;;;13.00;99.90;;;;;;5379089;26;20732;-57
2024/04/12 04:19:45;;;;;;;29.43;17.20;;;13.00;99.90;;;;;;5434970;26;20654;-53
2024/04/12 04:22:21;;;;;;;28.10;18.10;;;13.00;99.90;;;;;;5442365;26;20369;-57
2024/04/12 04:24:51;;;;;;;26.07;15.97;;;13.00;99.90;;;;;;5425027;26;23645;-50
2024/04/12 04:27:17;;;;;;;29.77;17.27;;;12.90;99.90;;;;;;5455252;26;20240;-56
2024/04/12 04:29:46;;;;;;;30.97;16.87;;;13.00;99.90;;;;;;5433825;26;20573;-56
2024/04/12 04:32:12;;;;;;;27.37;17.07;;;13.00;99.90;;;;;;5405208;26;20258;-50
2024/04/12 04:34:44;;;;;;;26.03;16.60;;;13.00;99.90;;;;;;5461461;26;20339;-57
2024/04/12 04:37:14;;;;;;;27.23;16.90;;;12.90;99.90;;;;;;5451265;26;20232;-52
2024/04/12 04:39:43;;;;;;;27.83;17.83;;;13.00;99.90;;;;;;5409036;26;20248;-56
2024/04/12 04:42:13;;;;;;;28.80;17.27;;;13.00;99.90;;;;;;5446420;26;20278;-52
2024/04/12 04:44:39;;;;;;;30.73;17.50;;;12.90;99.90;;;;;;5442789;26;20285;-57
2024/04/12 04:47:09;;;;;;;26.80;16.70;;;12.90;99.90;;;;;;5397535;26;20245;-53
2024/04/12 04:49:36;;;;;;;29.20;17.87;;;12.90;99.90;;;;;;5453770;26;20698;-56
2024/04/12 04:52:08;;;;;;;28.63;17.23;;;12.90;99.90;;;;;;5440418;26;20333;-52
2024/04/12 04:54:39;;;;;;;32.30;18.37;;;12.90;99.90;;;;;;5416686;26;20334;-57
2024/04/12 04:57:07;;;;;;;30.17;18.33;;;12.90;99.90;;;;;;5433533;26;20339;-50
2024/04/12 04:59:33;;;;;;;29.23;17.87;;;12.90;99.90;;;;;;5450194;26;20234;-57
2024/04/12 05:02:02;;;;;;;30.67;17.60;;;12.90;99.90;;;;;;5397759;26;20289;-51
2024/04/12 05:04:31;;;;;;;30.67;17.43;;;12.90;99.90;;;;;;5460325;26;20281;-56
2024/04/12 05:07:00;;;;;;;27.83;16.77;;;12.90;99.90;;;;;;5453946;26;20244;-55
2024/04/12 05:09:27;;;;;;;28.73;16.50;;;12.90;99.90;;;;;;5423801;26;20235;-56
2024/04/12 05:11:58;;;;;;;31.53;17.43;;;12.90;99.90;;;;;;5421447;26;20270;-49
2024/04/12 05:14:46;;;;;;;29.07;16.77;;;12.90;99.90;;;;;;5447713;26;20232;-52
2024/04/12 05:17:15;;;;;;;28.40;17.03;;;12.90;99.90;;;;;;5416616;26;20741;-57
2024/04/12 05:19:43;;;;;;;29.37;17.00;;;12.90;99.90;;;;;;5424769;26;21161;-52
2024/04/12 05:22:13;;;;;;;27.40;16.53;;;12.90;99.90;;;;;;5407327;26;20331;-58
2024/04/12 05:24:41;;;;;;;28.83;17.20;;;12.90;99.90;;;;;;5425606;26;20625;-53
2024/04/12 05:27:12;;;;;;;30.80;18.17;;;12.90;99.90;;;;;;5421417;26;20589;-56
2024/04/12 05:29:40;;;;;;;31.50;18.50;;;12.90;99.90;;;;;;5440780;26;20362;-52
2024/04/12 05:32:09;;;;;;;29.07;18.17;;;12.90;99.90;;;;;;5446309;26;20227;-57
2024/04/12 05:34:36;;;;;;;33.43;19.57;;;12.90;99.90;;;;;;5389330;26;20427;-54
2024/04/12 05:37:05;;;;;;;31.13;18.60;;;12.90;99.90;;;;;;5432201;26;20235;-56
2024/04/12 05:39:33;;;;;;;31.97;18.57;;;12.90;99.90;;;;;;5424447;26;21413;-54
2024/04/12 05:42:05;;;;;;;35.37;20.53;;;12.90;99.90;;;;;;5435718;26;20783;-54
2024/04/12 05:44:34;;;;;;;31.10;19.90;;;13.00;99.90;;;;;;5449282;26;20223;-51
2024/04/12 05:47:05;;;;;;;31.80;20.10;;;13.00;99.90;;;;;;5445136;26;20306;-53
2024/04/12 05:49:33;;;;;;;34.17;19.63;;;13.00;99.90;;;;;;5391275;26;21478;-56
2024/04/12 05:52:02;;;;;;;32.00;20.60;;;13.00;99.90;;;;;;5428253;26;20360;-55
2024/04/12 05:54:39;;;;;;;35.07;20.57;;;13.00;99.90;;;;;;5448109;26;20326;-53
2024/04/12 05:57:10;;;;;;;30.13;19.90;;;13.00;99.90;;;;;;5408862;26;20294;-57
2024/04/12 05:59:42;;;;;;;32.20;19.83;;;13.00;99.90;;;;;;5427560;26;20234;-56
2024/04/12 06:02:15;;;;;;;37.83;21.73;;;13.10;99.90;;;;;;5425006;26;20343;-57
2024/04/12 06:04:46;;;;;;;35.83;20.80;;;13.00;99.90;;;;;;5452121;26;20740;-54
2024/04/12 06:07:15;;;;;;;32.03;21.90;;;13.10;99.90;;;;;;5372284;26;20258;-50
2024/04/12 06:09:47;;;;;;;36.33;20.93;;;13.10;99.90;;;;;;5392368;26;20292;-56
2024/04/12 06:12:16;;;;;;;35.47;21.67;;;13.10;99.90;;;;;;5433607;26;20231;-57
2024/04/12 06:14:45;;;;;;;34.27;21.03;;;13.10;99.90;;;;;;5436133;26;20366;-59
2024/04/12 06:17:15;;;;;;;37.60;20.60;;;13.10;99.90;;;;;;5450243;26;20235;-57
2024/04/12 06:19:41;;;;;;;32.87;20.83;;;13.10;99.90;;;;;;5453780;26;20273;-58
2024/04/12 06:22:13;;;;;;;33.83;20.90;;;13.10;99.90;;;;;;5416468;26;20239;-53
2024/04/12 06:24:39;;;;;;;34.07;21.27;;;13.10;99.90;;;;;;5416030;26;20925;-56
2024/04/12 06:27:09;;;;;;;33.90;20.50;;;13.10;99.90;;;;;;5438495;26;20285;-51
2024/04/12 06:29:35;;;;;;;33.37;20.67;;;13.10;99.90;;;;;;5444053;26;20269;-55
2024/04/12 06:32:08;;;;;;;32.77;21.00;;;13.10;99.90;;;;;;5452509;26;20234;-56
2024/04/12 06:34:37;;;;;;;34.17;20.87;;;13.10;99.90;;;;;;5450955;26;20227;-55
2024/04/12 06:37:08;;;;;;;30.63;20.50;;;13.10;99.90;;;;;;5414732;26;20235;-54
2024/04/12 06:39:34;;;;;;;35.13;19.23;;;13.10;99.90;;;;;;5438660;26;20334;-56
2024/04/12 06:42:04;;;;;;;31.50;20.27;;;13.10;99.90;;;;;;5462457;26;20231;-55
2024/04/12 06:44:30;;;;;;;36.07;21.00;;;13.10;99.90;;;;;;5440431;26;20238;-58
2024/04/12 06:47:00;;;;;;;35.50;19.70;;;13.20;99.90;;;;;;5440673;26;21098;-52
2024/04/12 06:49:29;;;;;;;27.83;18.80;;;13.20;99.90;;;;;;5456368;26;20233;-59
2024/04/12 06:52:14;;;;;;;31.37;19.43;;;13.20;99.90;;;;;;5415491;26;20289;-51
2024/04/12 06:54:42;;;;;;;33.47;19.27;;;13.20;99.90;;;;;;5447189;26;20307;-53
2024/04/12 06:57:17;;;;;;;26.20;18.47;;;13.20;99.90;;;;;;5442814;26;20592;-50
2024/04/12 06:59:46;;;;;;;29.17;18.90;;;13.20;99.90;;;;;;5419249;26;20325;-57
2024/04/12 07:02:23;;;;;;;32.20;19.63;;;13.20;99.90;;;;;;5431476;26;20254;-49
2024/04/12 07:04:54;;;;;;;30.53;19.50;;;13.20;99.90;;;;;;5465887;26;21201;-50
2024/04/12 07:07:28;;;;;;;29.77;18.50;;;13.30;99.90;;;;;;5394728;26;20235;-56
2024/04/12 07:09:57;;;;;;;33.73;19.00;;;13.30;99.90;;;;;;5437901;26;20241;-49
2024/04/12 07:12:27;;;;;;;26.20;16.97;;;13.30;99.90;;;;;;5408961;26;20239;-57
2024/04/12 07:14:54;;;;;;;24.50;16.23;;;13.30;99.90;;;;;;5433136;26;20289;-59
2024/04/12 07:17:23;;;;;;;28.13;17.20;;;13.40;99.90;;;;;;5434092;26;20290;-56
2024/04/12 07:19:50;;;;;;;26.50;17.07;;;13.40;99.90;;;;;;5446021;26;20255;-52
2024/04/12 07:22:22;;;;;;;24.63;17.43;;;13.50;99.90;;;;;;5441291;26;20231;-58
2024/04/12 07:24:50;;;;;;;20.57;14.90;;;13.60;99.90;;;;;;5414648;26;20241;-51
2024/04/12 07:27:22;;;;;;;25.17;15.83;;;13.50;99.90;;;;;;5425447;26;20243;-57
2024/04/12 07:29:49;;;;;;;24.83;17.30;;;13.50;99.90;;;;;;5412817;26;20244;-48
2024/04/12 07:32:22;;;;;;;26.10;17.47;;;13.50;99.90;;;;;;5438818;26;20804;-55
2024/04/12 07:34:48;;;;;;;24.87;16.30;;;13.60;99.90;;;;;;5445984;26;20285;-51
2024/04/12 07:37:32;;;;;;;25.17;16.13;;;13.70;99.90;;;;;;5367512;26;20256;-51
2024/04/12 07:42:45;;;;;;;21.30;14.97;;;13.70;99.90;;;;;;5387032;26;20282;-54
2024/04/12 07:45:17;;;;;;;23.00;15.03;;;13.80;99.90;;;;;;5404298;26;20239;-50
2024/04/12 07:47:52;;;;;;;20.47;13.93;;;13.90;99.90;;;;;;5445453;26;20286;-53
2024/04/12 07:50:28;;;;;;;23.60;15.33;;;14.00;99.90;;;;;;5460471;26;20281;-50
2024/04/12 07:53:10;;;;;;;20.13;14.37;;;14.10;99.90;;;;;;5457023;26;20634;-58
2024/04/12 07:55:39;;;;;;;21.13;14.20;;;14.10;99.90;;;;;;5368398;26;20308;-58
2024/04/12 07:58:09;;;;;;;17.53;14.07;;;14.20;99.90;;;;;;5403864;26;20286;-54
2024/04/12 08:00:45;;;;;;;19.60;13.43;;;14.20;99.90;;;;;;5415102;26;20285;-56
2024/04/12 08:03:16;;;;;;;18.80;13.10;;;14.20;99.90;;;;;;5435824;26;20236;-52
2024/04/12 08:05:59;;;;;;;21.57;13.47;;;14.20;99.90;;;;;;5461064;26;20547;-50
2024/04/12 08:08:43;;;;;;;17.57;12.43;;;14.30;99.90;;;;;;5457962;26;20226;-56
2024/04/12 08:11:31;;;;;;;20.97;13.83;;;14.30;99.90;;;;;;5370994;26;20264;-54
2024/04/12 08:14:05;;;;;;;16.93;12.23;;;14.30;99.90;;;;;;5388631;26;20249;-57
2024/04/12 08:16:35;;;;;;;16.03;12.33;;;14.30;99.90;;;;;;5428125;26;20227;-56
2024/04/12 08:19:11;;;;;;;15.60;11.57;;;14.30;99.90;;;;;;5439403;26;20247;-57
2024/04/12 08:21:41;;;;;;;17.47;12.47;;;14.40;99.90;;;;;;5448302;26;21093;-55
2024/04/12 08:24:22;;;;;;;16.40;12.83;;;14.50;99.90;;;;;;5431292;26;20278;-56
2024/04/12 08:26:48;;;;;;;14.70;11.90;;;14.50;99.90;;;;;;5403083;26;20288;-58
2024/04/12 08:29:23;;;;;;;16.83;12.20;;;14.50;99.90;;;;;;5395283;26;20265;-56
2024/04/12 08:31:50;;;;;;;15.27;11.80;;;14.50;99.90;;;;;;5424813;26;20875;-58
2024/04/12 08:34:20;;;;;;;15.30;10.60;;;14.60;99.90;;;;;;5406455;26;20307;-54
2024/04/12 08:36:50;;;;;;;14.43;10.33;;;14.60;99.90;;;;;;5456939;26;20223;-58
2024/04/12 08:39:25;;;;;;;13.93;11.33;;;14.60;99.90;;;;;;5439024;26;20236;-58
2024/04/12 08:42:00;;;;;;;17.03;11.30;;;14.60;99.90;;;;;;5431857;26;20576;-58
2024/04/12 08:44:29;;;;;;;14.27;10.10;;;14.60;99.90;;;;;;5406131;26;20240;-51
2024/04/12 08:47:15;;;;;;;13.43;10.60;;;14.60;99.90;;;;;;5416563;26;20291;-58
2024/04/12 08:49:45;;;;;;;12.63;9.73;;;14.60;99.90;;;;;;5402354;26;20232;-53
2024/04/12 08:52:24;;;;;;;12.57;9.83;;;14.50;99.90;;;;;;5431739;26;20592;-56
2024/04/12 08:54:54;;;;;;;12.03;9.83;;;14.60;99.90;;;;;;5434581;26;20228;-59
2024/04/12 08:57:24;;;;;;;10.03;9.07;;;14.50;99.90;;;;;;5446886;26;20224;-53
2024/04/12 08:59:51;;;;;;;9.87;8.60;;;14.50;99.90;;;;;;5369700;26;20786;-56
2024/04/12 09:02:23;;;;;;;15.20;9.33;;;14.50;99.90;;;;;;5440112;26;20270;-53
2024/04/12 09:04:52;;;;;;;12.33;10.07;;;14.50;99.90;;;;;;5388595;26;20227;-56
2024/04/12 09:07:23;;;;;;;12.63;8.93;;;14.50;99.90;;;;;;5427896;26;20289;-50
2024/04/12 09:09:55;;;;;;;10.87;8.23;;;14.50;99.90;;;;;;5454796;26;20232;-56
2024/04/12 09:12:25;;;;;;;12.70;8.57;;;14.50;99.90;;;;;;5459232;26;20227;-50
2024/04/12 09:14:53;;;;;;;10.13;8.03;;;14.50;99.90;;;;;;5398166;26;20592;-58
2024/04/12 09:17:26;;;;;;;9.63;7.83;;;14.50;99.90;;;;;;5410753;26;20243;-54
2024/04/12 09:19:53;;;;;;;8.57;7.67;;;14.60;99.90;;;;;;5394146;26;20254;-58
2024/04/12 09:22:23;;;;;;;9.20;7.53;;;14.60;99.90;;;;;;5457799;26;20333;-52
2024/04/12 09:24:49;;;;;;;10.73;7.77;;;14.60;99.90;;;;;;5459321;26;20235;-56
2024/04/12 09:27:22;;;;;;;9.57;8.27;;;14.60;99.90;;;;;;5444594;26;20411;-56
2024/04/12 09:29:54;;;;;;;13.97;7.90;;;14.60;99.90;;;;;;5412153;26;20306;-55
2024/04/12 09:35:14;;;;;;;10.43;7.33;;;14.70;99.90;;;;;;5430415;26;20238;-56
2024/04/12 09:37:45;;;;;;;9.43;8.17;;;14.70;99.90;;;;;;5456513;26;20258;-53
2024/04/12 09:40:24;;;;;;;11.53;8.53;;;14.70;99.90;;;;;;5443804;26;20270;-57
2024/04/12 09:45:52;;;;;;;9.77;8.20;;;14.70;99.90;;;;;;5394356;26;20373;-58
2024/04/12 10:38:42;;;;;;;7.70;6.90;;;15.00;99.90;;;;;;5423299;26;20236;-50
2024/04/12 10:41:10;;;;;;;11.67;7.00;;;15.00;99.90;;;;;;5431106;26;20237;-55
2024/04/12 10:43:41;;;;;;;8.70;7.73;;;15.00;99.90;;;;;;5431217;26;20238;-51
2024/04/12 10:46:10;;;;;;;12.13;8.23;;;15.00;99.90;;;;;;5448240;26;20262;-55
2024/04/12 10:48:44;;;;;;;7.80;7.00;;;15.10;99.90;;;;;;5374825;26;20243;-49
2024/04/12 10:51:14;;;;;;;9.23;7.87;;;15.00;99.90;;;;;;5457098;26;20279;-56
2024/04/12 10:53:46;;;;;;;9.97;8.27;;;15.00;99.90;;;;;;5445922;26;20226;-56
2024/04/12 10:56:18;;;;;;;8.57;7.67;;;14.90;99.90;;;;;;5401558;26;20252;-54
2024/04/12 10:58:51;;;;;;;9.73;7.83;;;14.90;99.90;;;;;;5409493;26;20295;-52
2024/04/12 11:01:19;;;;;;;8.63;7.83;;;15.00;99.90;;;;;;5450558;26;20253;-56
2024/04/12 11:03:56;;;;;;;11.17;8.17;;;15.00;99.90;;;;;;5436980;26;20261;-52
2024/04/12 11:06:31;;;;;;;9.30;8.30;;;15.00;99.90;;;;;;5446643;26;20226;-60
2024/04/12 11:09:04;;;;;;;11.43;7.93;;;15.00;99.90;;;;;;5434247;26;20347;-54
2024/04/12 11:11:38;;;;;;;8.83;7.50;;;15.00;99.90;;;;;;5382366;26;20274;-59
2024/04/12 11:14:15;;;;;;;10.23;7.63;;;15.00;99.90;;;;;;5419138;26;20227;-52
2024/04/12 11:33:39;;;;;;;11.80;7.83;;;15.20;99.90;;;;;;5443113;26;20231;-55
2024/04/12 11:36:14;;;;;;;11.27;6.90;;;15.30;99.90;;;;;;5430303;26;20328;-59
2024/04/12 11:38:46;;;;;;;8.43;7.60;;;15.50;99.90;;;;;;5405717;26;20228;-52
2024/04/12 11:41:15;;;;;;;7.63;6.87;;;15.70;99.90;;;;;;5422852;26;20232;-54
2024/04/12 11:43:45;;;;;;;7.67;6.90;;;15.90;99.90;;;;;;5376537;26;20244;-50
2024/04/12 11:46:13;;;;;;;8.00;7.20;;;16.10;99.90;;;;;;5424478;26;20227;-53
2024/04/12 11:48:43;;;;;;;8.00;7.20;;;16.10;99.90;;;;;;5406813;26;20290;-52
2024/04/12 11:51:15;;;;;;;7.87;7.07;;;16.20;99.90;;;;;;5402899;26;20236;-56
2024/04/12 11:53:44;;;;;;;8.63;7.17;;;16.20;99.90;;;;;;5381623;26;20299;-55
2024/04/12 11:56:10;;;;;;;9.13;7.40;;;16.30;99.90;;;;;;5428806;26;20228;-53
2024/04/12 11:58:43;;;;;;;8.60;7.77;;;16.30;99.90;;;;;;5388603;26;20310;-56
2024/04/12 12:01:09;;;;;;;8.07;7.27;;;16.30;99.90;;;;;;5439706;26;20239;-53
2024/04/12 12:03:38;;;;;;;7.90;6.70;;;16.30;99.90;;;;;;5414720;26;20290;-56
2024/04/12 12:06:06;;;;;;;8.10;7.30;;;16.30;99.90;;;;;;5410457;26;20227;-58
2024/04/12 12:08:41;;;;;;;10.97;7.17;;;16.40;99.90;;;;;;5410129;26;20298;-59
2024/04/12 12:11:08;;;;;;;9.57;7.17;;;16.40;99.90;;;;;;5431481;26;20262;-55
2024/04/12 12:13:42;;;;;;;10.10;7.63;;;16.40;99.90;;;;;;5397245;26;20243;-59
2024/04/12 12:16:08;;;;;;;8.43;7.20;;;16.40;99.90;;;;;;5414213;26;20420;-52
2024/04/12 12:18:37;;;;;;;7.83;7.03;;;16.40;99.90;;;;;;5418762;26;20240;-59
2024/04/12 12:21:03;;;;;;;8.10;7.27;;;16.50;99.90;;;;;;5417658;26;22042;-57
2024/04/12 12:23:33;;;;;;;8.03;7.23;;;16.50;99.90;;;;;;5433393;26;20839;-59
2024/04/12 12:26:03;;;;;;;10.27;7.80;;;16.50;99.90;;;;;;5402177;26;20328;-55
2024/04/12 12:28:32;;;;;;;8.30;7.40;;;16.50;99.90;;;;;;5381992;26;20384;-57
2024/04/12 12:30:58;;;;;;;8.10;7.33;;;16.70;99.90;;;;;;5420811;26;21144;-56
2024/04/12 12:33:33;;;;;;;8.73;7.67;;;16.70;99.90;;;;;;5419763;26;21145;-53
2024/04/12 12:35:59;;;;;;;9.10;8.20;;;16.90;99.90;;;;;;5421305;26;20259;-53
2024/04/12 12:38:28;;;;;;;8.80;7.70;;;17.00;99.90;;;;;;5413665;26;20282;-56
2024/04/12 12:40:54;;;;;;;8.40;7.70;;;17.20;99.90;;;;;;5401967;26;20260;-51
2024/04/12 12:43:28;;;;;;;9.23;8.20;;;17.30;99.90;;;;;;5404492;26;20285;-57
2024/04/12 12:45:57;;;;;;;9.20;7.73;;;17.30;99.90;;;;;;5410643;26;20537;-54
2024/04/12 12:48:27;;;;;;;8.20;7.40;;;17.40;99.90;;;;;;5412337;26;20298;-54
2024/04/12 12:50:54;;;;;;;8.60;7.63;;;17.40;99.90;;;;;;5435185;26;20235;-54
2024/04/12 12:53:23;;;;;;;7.43;6.73;;;17.40;99.90;;;;;;5422148;26;20581;-56
2024/04/12 12:55:51;;;;;;;8.03;7.33;;;17.50;99.90;;;;;;5446954;26;20718;-48
2024/04/12 12:58:24;;;;;;;8.20;7.37;;;17.70;99.90;;;;;;5439954;26;20302;-58
2024/04/12 13:00:59;;;;;;;7.83;7.03;;;17.80;99.90;;;;;;5392735;26;20238;-53
2024/04/12 13:03:30;;;;;;;7.47;6.77;;;17.90;99.90;;;;;;5430791;26;20330;-53
2024/04/12 13:05:56;;;;;;;7.60;6.60;;;17.90;99.90;;;;;;5455735;26;20231;-50
2024/04/12 13:08:26;;;;;;;8.50;6.43;;;18.20;99.90;;;;;;5437282;26;20708;-56
2024/04/12 13:10:56;;;;;;;7.37;6.00;;;18.40;99.90;;;;;;5450837;26;20239;-51
2024/04/12 13:13:26;;;;;;;6.63;6.03;;;18.40;99.90;;;;;;5437074;26;20310;-56
2024/04/12 13:15:55;;;;;;;6.30;5.80;;;18.30;99.90;;;;;;5387420;26;20335;-53
2024/04/12 13:18:25;;;;;;;7.23;5.57;;;18.60;99.90;;;;;;5424574;26;20262;-55
2024/04/12 13:20:53;;;;;;;7.03;6.00;;;18.90;99.90;;;;;;5440712;26;20224;-52
2024/04/12 13:23:24;;;;;;;6.70;5.90;;;19.00;99.90;;;;;;5435057;26;20239;-56
2024/04/12 13:25:51;;;;;;;8.73;5.53;;;18.80;99.90;;;;;;5431703;26;20231;-56
2024/04/12 13:28:19;;;;;;;8.10;6.70;;;18.80;99.90;;;;;;5445011;26;21005;-56
2024/04/12 13:30:47;;;;;;;7.67;6.03;;;18.70;99.90;;;;;;5372588;26;20245;-55
2024/04/12 13:33:19;;;;;;;7.37;6.33;;;18.80;99.90;;;;;;5435624;26;21238;-52
2024/04/12 13:35:46;;;;;;;7.00;6.03;;;18.70;99.90;;;;;;5438760;26;20372;-56
2024/04/12 13:38:17;;;;;;;7.60;6.13;;;18.80;99.90;;;;;;5443934;26;20263;-51
2024/04/12 13:40:45;;;;;;;8.60;5.90;;;19.00;99.90;;;;;;5445646;26;20624;-57
2024/04/12 13:43:16;;;;;;;6.57;5.97;;;18.90;99.90;;;;;;5431313;26;20232;-54
2024/04/12 13:51:18;;;;;;;7.32;6.65;;;19.70;99.90;;;;;;5443182;26;20251;-53
2024/04/12 13:53:50;;;;;;;6.75;6.03;;;20.10;99.90;;;;;;5463921;26;20234;-55
2024/04/12 13:59:10;;;;;;;8.25;6.13;;;20.20;99.90;;;;;;5429172;26;20239;-56
2024/04/12 14:01:40;;;;;;;6.88;5.43;;;20.30;99.90;;;;;;5412402;26;20254;-51
2024/04/12 14:04:17;;;;;;;7.03;6.13;;;20.50;99.90;;;;;;5445429;26;20324;-52
2024/04/12 14:06:47;;;;;;;8.43;5.97;;;20.60;99.90;;;;;;5447891;26;20248;-55
2024/04/12 14:09:21;;;;;;;8.98;6.43;;;20.50;99.90;;;;;;5440750;26;20235;-51
2024/04/12 14:11:50;;;;;;;7.55;5.70;;;20.20;99.90;;;;;;5443584;26;20234;-54
2024/04/12 14:14:20;;;;;;;9.95;6.38;;;19.90;99.90;;;;;;5452295;26;20307;-54